Weather observations for the past three days for
Tucson Ryan Field Airport
| Date | Time (mst) | Wind (mph) | Vis. (mi.) | Weather | Sky Cond. | Temperature (ºF) | Relative Humidity | Wind Chill (°F) | Heat Index (°F) | Pressure | Precipitation (in) | ||||||
|---|---|---|---|---|---|---|---|---|---|---|---|---|---|---|---|---|---|
| Air | Dwpt | 6 hour | altimeter (in) | sea level (mb) | 1 hr | 3 hr | 6 hr | ||||||||||
| Max. | Min. | ||||||||||||||||
| 04 | 19:45 | S 3 | 10.00 | Fair | CLR | 87.8 | 60.8 | 40% | 88 | 29.93 | 0.0 | ||||||
| 04 | 18:45 | SW 6 | 10.00 | Fair | CLR | 91.4 | 59 | 34% | 91 | 29.91 | 0.0 | ||||||
| 04 | 17:45 | SW 6 | 10.00 | Fair | CLR | 95 | 57.2 | 28% | 94 | 29.91 | 0.0 | ||||||
| 04 | 16:45 | SW 7 | 10.00 | Fair | CLR | 96.8 | 59 | 28% | 96 | 29.9 | 0.0 | ||||||
| 04 | 15:45 | SW 10 | 10.00 | Fair | CLR | 96.8 | 57.2 | 27% | 96 | 29.91 | 0.0 | ||||||
| 04 | 14:45 | SW 5 | 10.00 | Fair | CLR | 96.8 | 55.4 | 25% | 95 | 29.93 | 0.0 | ||||||
| 04 | 13:45 | S 3 G 14 | 10.00 | Fair | CLR | 96.8 | 59 | 28% | 96 | 29.94 | 0.0 | ||||||
| 04 | 12:45 | W 6 | 10.00 | Fair | CLR | 95 | 60.8 | 32% | 95 | 29.97 | 0.0 | ||||||
| 04 | 11:45 | Calm | 10.00 | Fair | CLR | 93.2 | 64.4 | 39% | 95 | 29.99 | 0.0 | ||||||
| 04 | 10:45 | Calm | 10.00 | Fair | CLR | 89.6 | 82.4 | 79% | 111 | 30.01 | 0.0 | ||||||
| 04 | 09:45 | Calm | 10.00 | Fair | CLR | 86 | 68 | 55% | 89 | 30.02 | 0.0 | ||||||
| 04 | 08:45 | Calm | 10.00 | Fair | CLR | 84.2 | 69.8 | 62% | 88 | 30.01 | 0.0 | ||||||
| 04 | 07:45 | W 3 | 10.00 | Fair | CLR | 80.6 | 69.8 | 70% | 84 | 30 | 0.0 | ||||||
| 04 | 06:45 | Calm | 10.00 | Fair | CLR | 77 | 69.8 | 79% | 79 | 29.99 | 0.0 | ||||||
| 04 | 05:45 | E 5 | 10.00 | Fair | CLR | 75.2 | 69.8 | 83% | 75 | 29.96 | 0.0 | ||||||
| 03 | 19:45 | SW 5 | 10.00 | A Few Clouds | FEW085 | 86 | 64.4 | 49% | 87 | 29.92 | 0.0 | ||||||
| 03 | 18:45 | S 8 | 10.00 | Fair | CLR | 87.8 | 62.6 | 43% | 88 | 29.9 | 0.0 | ||||||
| 03 | 17:45 | S 9 | 10.00 | Fair | CLR | 89.6 | 64.4 | 43% | 91 | 29.89 | 0.0 | ||||||
| 03 | 16:45 | S 16 | 10.00 | Fair | CLR | 91.4 | 64.4 | 41% | 93 | 29.89 | 0.0 | ||||||
| 03 | 15:45 | E 9 G 17 | 10.00 | Fair | CLR | 91.4 | 66.2 | 44% | 94 | 29.9 | 0.0 | ||||||
| 03 | 14:45 | Calm | 10.00 | Fair | CLR | 91.4 | 66.2 | 44% | 94 | 29.91 | 0.0 | ||||||
| 03 | 13:45 | Calm | 10.00 | Fair | CLR | 89.6 | 66.2 | 46% | 92 | 29.93 | 0.0 | ||||||
| 03 | 12:45 | Calm | 10.00 | Fair | CLR | 91.4 | 62.6 | 38% | 92 | 29.96 | 0.0 | ||||||
| 03 | 11:45 | W 5 | 7.00 | Fair | CLR | 89.6 | 64.4 | 43% | 91 | 29.99 | 0.0 | ||||||
| 03 | 10:45 | NE 5 | 7.00 | Fair | CLR | 86 | 64.4 | 49% | 87 | 30.01 | 0.0 | ||||||
| 03 | 09:45 | E 6 | 7.00 | Fair | CLR | 84.2 | 66.2 | 55% | 87 | 30.01 | 0.0 | ||||||
| 03 | 08:45 | S 7 | 7.00 | Mostly Cloudy | BKN065 BKN075 | 82.4 | 64.4 | 55% | 84 | 30.02 | 0.0 | ||||||
| 03 | 07:45 | SE 8 | 7.00 | Light Rain | BKN065 OVC075 | 77 | 69.8 | 79% | 79 | 30.02 | 0.0 | ||||||
| 03 | 06:45 | NE 3 | 7.00 | Light Rain | FEW050 FEW065 SCT120 | 73.4 | 69.8 | 89% | 30 | 0.0 | |||||||
| 03 | 05:46 | SW 7 | 7.00 | Light Rain | FEW003 SCT036 BKN060 | 77 | 69.8 | 79% | 79 | 30 | 0.0 | ||||||
| 02 | 19:45 | SW 8 | 10.00 | Fair | CLR | 86 | 68 | 55% | 89 | 29.94 | 0.0 | ||||||
| 02 | 18:45 | SW 7 | 10.00 | Mostly Cloudy | BKN120 | 87.8 | 68 | 52% | 91 | 29.94 | 0.0 | ||||||
| 02 | 17:45 | S 7 | 10.00 | Fair | CLR | 89.6 | 62.6 | 41% | 90 | 29.94 | 0.0 | ||||||
| 02 | 16:45 | SW 9 G 15 | 10.00 | A Few Clouds | FEW110 | 93.2 | 59 | 32% | 93 | 29.94 | 0.0 | ||||||
| 02 | 15:45 | S 5 | 10.00 | Fair | CLR | 91.4 | 66.2 | 44% | 94 | 29.95 | 0.0 | ||||||
| 02 | 14:45 | S 8 G 15 | 10.00 | Fair | CLR | 91.4 | 68 | 46% | 96 | 29.97 | 0.0 | ||||||
| 02 | 11:45 | NW 8 | 10.00 | Fair | CLR | 91.4 | 66.2 | 44% | 94 | 30.03 | 0.0 | ||||||
| 02 | 10:45 | Vrbl 6 | 10.00 | Fair | CLR | 89.6 | 68 | 49% | 93 | 30.05 | 0.0 | ||||||
| 02 | 09:45 | Calm | 10.00 | Fair | CLR | 87.8 | 71.6 | 59% | 94 | 30.05 | 0.0 | ||||||
| 02 | 08:45 | Calm | 10.00 | Fair | CLR | 84.2 | 71.6 | 66% | 90 | 30.05 | 0.0 | ||||||
| 02 | 06:45 | Calm | 10.00 | Fair | CLR | 75.2 | 69.8 | 83% | 75 | 30.03 | 0.0 | ||||||
| 02 | 05:45 | E 5 | 10.00 | Fair | CLR | 73.4 | 69.8 | 89% | 30.02 | 0.0 | |||||||
| Date | Time (mst) | Wind (mph) | Vis. (mi.) | Weather | Sky Cond. | Air | Dwpt | Max. | Min. | Relative Humidity | Wind Chill (°F) | Heat Index (°F) | altimeter (in) | sea level (mb) | 1 hr | 3 hr | 6 hr |
| 6 hour | |||||||||||||||||
| Temperature (ºF) | Pressure | Precipitation (in) | |||||||||||||||